createdAt,value
2023-03-26T00:01:38.439Z,99474.66
2023-03-26T00:04:07.558Z,99483.84
2023-03-26T00:06:39.456Z,99476.53
2023-03-26T00:09:10.320Z,99494.50
2023-03-26T00:11:37.892Z,99480.97
2023-03-26T00:14:05.820Z,99475.19
2023-03-26T00:16:33.785Z,99476.00
2023-03-26T00:19:02.660Z,99482.72
2023-03-26T00:21:30.897Z,99479.97
2023-03-26T00:24:07.844Z,99485.81
2023-03-26T00:26:37.982Z,99493.09
2023-03-26T00:29:08.291Z,99503.84
2023-03-26T00:31:38.065Z,99507.66
2023-03-26T00:34:05.919Z,99503.28
2023-03-26T00:36:36.095Z,99522.31
2023-03-26T00:39:06.330Z,99516.69
2023-03-26T00:41:37.415Z,99519.19
2023-03-26T00:44:05.649Z,99517.00
2023-03-26T00:46:33.291Z,99508.59
2023-03-26T00:49:01.989Z,99499.75
2023-03-26T00:51:29.196Z,99500.31
2023-03-26T00:53:57.997Z,99507.19
2023-03-26T00:56:26.362Z,99504.81
2023-03-26T00:58:54.060Z,99507.53
2023-03-26T01:01:30.576Z,99500.88
2023-03-26T01:04:27.664Z,99498.66
2023-03-26T01:06:59.601Z,99497.97
2023-03-26T01:09:34.069Z,99499.53
2023-03-26T01:12:03.453Z,99504.63
2023-03-26T01:14:31.021Z,99512.50
2023-03-26T01:17:02.071Z,99493.03
2023-03-26T01:19:45.884Z,99501.75
2023-03-26T01:22:21.762Z,99500.13
2023-03-26T01:24:56.881Z,99495.06
2023-03-26T01:27:33.728Z,99498.84
2023-03-26T01:30:07.710Z,99497.47
2023-03-26T01:32:41.131Z,99490.00
2023-03-26T01:35:24.077Z,99490.56
2023-03-26T01:38:15.738Z,99482.91
2023-03-26T01:40:43.736Z,99458.13
2023-03-26T01:43:14.904Z,99475.72
2023-03-26T01:45:46.328Z,99468.63
2023-03-26T01:48:14.192Z,99469.69
2023-03-26T01:50:41.947Z,99461.19
2023-03-26T01:53:13.670Z,99458.38
2023-03-26T01:55:49.788Z,99472.22
2023-03-26T01:58:29.364Z,99460.16
2023-03-26T02:01:16.996Z,99465.94
2023-03-26T02:03:53.606Z,99460.34
2023-03-26T02:06:34.462Z,99462.31
2023-03-26T02:09:11.976Z,99456.47
2023-03-26T02:11:41.641Z,99461.47
2023-03-26T02:14:09.305Z,99449.78
2023-03-26T02:16:38.677Z,99454.34
2023-03-26T02:19:10.128Z,99474.13
2023-03-26T02:21:37.998Z,99467.59
2023-03-26T02:24:05.653Z,99461.88
2023-03-26T02:26:37.819Z,99467.44
2023-03-26T02:29:20.537Z,99468.25
2023-03-26T02:31:49.700Z,99469.28
2023-03-26T02:34:18.305Z,99465.41
2023-03-26T02:36:53.891Z,99477.25
2023-03-26T02:39:21.236Z,99476.56
2023-03-26T02:42:03.267Z,99451.81
2023-03-26T02:44:34.410Z,99465.16
2023-03-26T02:47:01.864Z,99445.94
2023-03-26T02:49:47.968Z,99471.38
2023-03-26T02:52:31.615Z,99471.16
2023-03-26T02:54:59.884Z,99466.00
2023-03-26T02:57:27.658Z,99480.22
2023-03-26T03:00:14.570Z,99487.19
2023-03-26T03:03:03.871Z,99483.38
2023-03-26T03:05:32.890Z,99483.56
2023-03-26T03:08:19.834Z,99482.84
2023-03-26T03:11:12.007Z,99483.47
2023-03-26T03:13:47.473Z,99474.19
2023-03-26T03:16:21.582Z,99484.94
2023-03-26T03:18:54.687Z,99473.28
2023-03-26T03:21:28.370Z,99478.53
2023-03-26T03:24:00.156Z,99488.09
2023-03-26T03:26:31.347Z,99498.66
2023-03-26T03:29:09.388Z,99497.03
2023-03-26T03:31:36.879Z,99473.25
2023-03-26T03:34:06.831Z,99454.63
2023-03-26T03:36:38.622Z,99465.88
2023-03-26T03:39:21.834Z,99472.94
2023-03-26T03:41:50.229Z,99481.28
2023-03-26T03:44:18.484Z,99479.16
2023-03-26T03:46:49.256Z,99484.97
2023-03-26T03:49:16.984Z,99478.97
2023-03-26T03:51:44.245Z,99484.81
2023-03-26T03:54:30.823Z,99484.22
2023-03-26T03:57:18.973Z,99486.16
2023-03-26T04:00:11.907Z,99479.03
2023-03-26T04:02:54.598Z,99491.91
2023-03-26T04:05:25.790Z,99494.13
2023-03-26T04:07:53.085Z,99499.16
2023-03-26T04:10:29.421Z,99500.88
2023-03-26T04:13:13.262Z,99498.84
2023-03-26T04:15:56.770Z,99504.94
2023-03-26T04:18:24.525Z,99500.34
2023-03-26T04:20:52.249Z,99498.09
2023-03-26T04:23:25.607Z,99503.75
2023-03-26T04:26:04.339Z,99483.66
2023-03-26T04:28:59.959Z,99508.41
2023-03-26T04:31:31.229Z,99508.94
2023-03-26T04:34:14.383Z,99503.22
2023-03-26T04:37:02.889Z,99503.66
2023-03-26T04:39:34.915Z,99499.06
2023-03-26T04:42:21.548Z,99495.31
2023-03-26T04:45:11.359Z,99511.06
2023-03-26T04:47:42.145Z,99515.69
2023-03-26T04:50:11.350Z,99512.81
2023-03-26T04:52:43.257Z,99514.69
2023-03-26T04:55:42.290Z,99513.50
2023-03-26T04:58:18.369Z,99517.09
2023-03-26T05:01:10.469Z,99512.72
2023-03-26T05:03:45.934Z,99525.16
2023-03-26T05:06:16.458Z,99523.41
2023-03-26T05:08:44.796Z,99529.88
2023-03-26T05:11:20.275Z,99535.44
2023-03-26T05:13:48.002Z,99534.66
2023-03-26T05:16:17.025Z,99527.38
2023-03-26T05:18:52.696Z,99529.66
2023-03-26T05:21:22.508Z,99538.69
2023-03-26T05:23:51.237Z,99545.91
2023-03-26T05:26:20.515Z,99552.22
2023-03-26T05:28:48.632Z,99565.31
2023-03-26T05:31:24.104Z,99549.47
2023-03-26T05:33:55.525Z,99563.56
2023-03-26T05:36:23.679Z,99567.53
2023-03-26T05:39:03.544Z,99566.16
2023-03-26T05:41:50.111Z,99575.81
2023-03-26T05:44:19.856Z,99567.81
2023-03-26T05:46:47.175Z,99571.72
2023-03-26T05:49:22.826Z,99575.03
2023-03-26T05:51:50.070Z,99577.25
2023-03-26T05:54:37.830Z,99585.06
2023-03-26T05:57:24.059Z,99582.28
2023-03-26T06:00:15.105Z,99589.63
2023-03-26T06:02:48.229Z,99576.97
2023-03-26T06:05:37.550Z,99567.56
2023-03-26T06:08:19.741Z,99576.56
2023-03-26T06:10:59.853Z,99585.44
2023-03-26T06:13:30.984Z,99582.78
2023-03-26T06:15:58.593Z,99588.00
2023-03-26T06:18:31.570Z,99583.41
2023-03-26T06:21:21.206Z,99581.47
2023-03-26T06:23:53.765Z,99558.41
2023-03-26T06:26:39.630Z,99585.38
2023-03-26T06:29:26.753Z,99580.22
2023-03-26T06:32:20.136Z,99574.56
2023-03-26T06:35:11.561Z,99571.06
2023-03-26T06:37:39.486Z,99582.25
2023-03-26T06:40:10.346Z,99578.09
2023-03-26T06:43:07.392Z,99572.22
2023-03-26T06:45:55.469Z,99581.63
2023-03-26T06:48:39.029Z,99571.56
2023-03-26T06:51:18.778Z,99580.63
2023-03-26T06:54:16.767Z,99572.41
2023-03-26T06:56:45.128Z,99579.81
2023-03-26T06:59:32.344Z,99572.00
2023-03-26T07:02:18.199Z,99579.28
2023-03-26T07:05:38.480Z,99587.59
2023-03-26T07:08:32.484Z,99580.47
2023-03-26T07:11:27.137Z,99576.81
2023-03-26T07:14:32.743Z,99579.41
2023-03-26T07:17:40.584Z,99580.59
2023-03-26T07:20:26.242Z,99583.06
2023-03-26T07:23:01.760Z,99577.00
2023-03-26T07:25:44.353Z,99577.94
2023-03-26T07:29:05.060Z,99573.94
2023-03-26T07:36:39.666Z,99566.56
2023-03-26T07:40:07.530Z,99563.84
2023-03-26T07:43:52.040Z,99566.88
2023-03-26T07:46:53.325Z,99566.31
2023-03-26T07:49:58.779Z,99567.16
2023-03-26T07:52:50.225Z,99558.91
2023-03-26T07:56:12.319Z,99547.91
2023-03-26T07:59:22.064Z,99554.25
2023-03-26T08:02:49.332Z,99550.25
2023-03-26T08:06:42.904Z,99552.59
2023-03-26T08:09:32.810Z,99555.06
2023-03-26T08:12:21.515Z,99549.53
2023-03-26T08:15:01.316Z,99539.13
2023-03-26T08:17:39.602Z,99537.94
2023-03-26T08:25:49.110Z,99540.44
2023-03-26T08:30:17.230Z,99539.59
2023-03-26T08:34:12.176Z,99538.09
2023-03-26T08:37:27.980Z,99533.09
2023-03-26T08:40:00.848Z,99520.84
2023-03-26T08:42:51.982Z,99522.00
2023-03-26T08:46:15.559Z,99524.69
2023-03-26T08:49:20.621Z,99517.19
2023-03-26T08:52:32.890Z,99510.66
2023-03-26T08:55:15.388Z,99509.09
2023-03-26T08:57:58.012Z,99497.56
2023-03-26T09:00:56.543Z,99505.03
2023-03-26T09:03:42.827Z,99493.88
2023-03-26T09:06:49.038Z,99497.53
2023-03-26T09:10:03.300Z,99485.53
2023-03-26T09:12:44.785Z,99504.34
2023-03-26T09:15:42.445Z,99501.47
2023-03-26T09:18:22.263Z,99492.72
2023-03-26T09:21:27.545Z,99489.25
2023-03-26T09:24:20.094Z,99482.91
2023-03-26T09:27:06.760Z,99477.63
2023-03-26T09:30:16.373Z,99486.09
2023-03-26T09:32:48.279Z,99480.41
2023-03-26T09:35:50.847Z,99467.63
2023-03-26T09:38:42.236Z,99466.19
2023-03-26T09:41:35.614Z,99466.75
2023-03-26T09:44:36.668Z,99467.34
2023-03-26T09:47:37.747Z,99454.69
2023-03-26T09:50:30.006Z,99449.59
2023-03-26T09:53:21.050Z,99451.53
2023-03-26T09:56:04.646Z,99437.97
2023-03-26T09:58:50.828Z,99441.38
2023-03-26T10:01:34.268Z,99439.28
2023-03-26T10:04:35.984Z,99420.66
2023-03-26T10:07:16.308Z,99433.84
2023-03-26T10:10:16.416Z,99429.50
2023-03-26T10:13:14.850Z,99420.69
2023-03-26T10:15:54.923Z,99415.16
2023-03-26T10:18:48.971Z,99400.84
2023-03-26T10:21:50.586Z,99415.63
2023-03-26T10:24:57.909Z,99420.69
2023-03-26T10:27:58.872Z,99366.81
2023-03-26T10:30:35.719Z,99407.94
2023-03-26T10:33:31.871Z,99400.25
2023-03-26T10:36:33.503Z,99393.91
2023-03-26T10:39:36.942Z,99399.88
2023-03-26T10:42:06.511Z,99375.44
2023-03-26T10:44:37.127Z,99385.28
2023-03-26T10:47:33.157Z,99382.94
2023-03-26T10:50:12.162Z,99388.50
2023-03-26T10:52:56.089Z,99376.41
2023-03-26T10:55:31.694Z,99376.22
2023-03-26T10:58:22.236Z,99367.50
2023-03-26T11:01:06.084Z,99375.13
2023-03-26T11:04:29.857Z,99364.94
2023-03-26T11:07:20.920Z,99364.69
2023-03-26T11:10:15.737Z,99355.66
2023-03-26T11:13:19.518Z,99348.81
2023-03-26T11:16:03.327Z,99350.97
2023-03-26T11:21:55.518Z,99330.88
2023-03-26T11:24:45.456Z,99316.69
2023-03-26T11:28:09.450Z,99319.00
2023-03-26T11:30:48.624Z,99313.06
2023-03-26T11:33:23.971Z,99306.34
2023-03-26T11:35:55.560Z,99297.88
2023-03-26T11:38:37.989Z,99294.09
2023-03-26T11:41:22.493Z,99288.34
2023-03-26T11:44:00.788Z,99279.22
2023-03-26T11:46:38.978Z,99264.00
2023-03-26T11:49:11.497Z,99261.66
2023-03-26T11:51:41.514Z,99246.44
2023-03-26T11:54:28.017Z,99238.06
2023-03-26T11:57:05.246Z,99233.50
2023-03-26T11:59:56.954Z,99241.19
2023-03-26T12:02:52.912Z,99219.09
2023-03-26T12:05:26.676Z,99234.25
2023-03-26T12:07:58.897Z,99219.34
2023-03-26T12:10:49.816Z,99206.47
2023-03-26T12:13:23.479Z,99202.03
2023-03-26T12:15:50.813Z,99175.53
2023-03-26T12:18:27.616Z,99177.22
2023-03-26T12:21:05.000Z,99191.75
2023-03-26T12:23:52.580Z,99187.16
2023-03-26T12:26:50.936Z,99177.19
2023-03-26T12:29:20.431Z,99170.97
2023-03-26T12:32:12.738Z,99169.09
2023-03-26T12:34:41.928Z,99155.53
2023-03-26T12:37:35.279Z,99164.34
2023-03-26T12:40:32.705Z,99168.50
2023-03-26T12:44:56.532Z,99165.81
2023-03-26T12:47:54.045Z,99164.09
2023-03-26T12:48:42.763Z,99142.19
2023-03-26T12:51:30.355Z,99151.44
2023-03-26T12:54:16.672Z,99151.09
2023-03-26T12:57:11.252Z,99132.78
2023-03-26T13:00:04.419Z,99141.34
2023-03-26T13:02:39.138Z,99118.88
2023-03-26T13:05:07.299Z,99116.19
2023-03-26T13:07:54.397Z,99109.97
2023-03-26T13:10:45.623Z,99102.53
2023-03-26T13:14:00.924Z,99108.25
2023-03-26T13:16:32.576Z,99094.72
2023-03-26T13:19:23.463Z,99089.66
2023-03-26T13:22:02.867Z,99091.03
2023-03-26T13:25:27.460Z,99086.47
2023-03-26T13:28:09.842Z,99082.41
2023-03-26T13:30:44.970Z,99075.59
2023-03-26T13:33:25.181Z,99069.56
2023-03-26T13:36:30.161Z,99066.84
2023-03-26T13:39:18.792Z,99058.31
2023-03-26T13:42:26.549Z,99056.69
2023-03-26T13:45:04.925Z,99042.41
2023-03-26T13:47:42.272Z,99045.47
2023-03-26T13:50:29.938Z,99046.84
2023-03-26T13:53:06.761Z,99044.66
2023-03-26T13:55:44.930Z,99025.50
2023-03-26T13:58:34.631Z,99039.72
2023-03-26T14:01:09.810Z,99025.44
2023-03-26T14:04:00.275Z,99026.88
2023-03-26T14:06:43.624Z,99029.28
2023-03-26T14:09:33.854Z,99017.22
2023-03-26T14:12:24.210Z,99016.69
2023-03-26T14:15:11.952Z,99007.09
2023-03-26T14:17:54.144Z,99005.78
2023-03-26T14:21:04.841Z,99003.06
2023-03-26T14:23:56.689Z,99005.50
2023-03-26T14:26:39.354Z,98995.38
2023-03-26T14:29:56.869Z,98983.19
2023-03-26T14:33:13.849Z,98979.19
2023-03-26T14:35:58.206Z,98972.00
2023-03-26T14:39:05.855Z,98972.72
2023-03-26T14:41:59.349Z,98975.28
2023-03-26T14:45:09.264Z,98960.75
2023-03-26T14:47:52.541Z,98960.56
2023-03-26T14:51:54.915Z,98948.22
2023-03-26T14:54:33.593Z,98913.28
2023-03-26T14:58:02.132Z,98935.19
2023-03-26T15:01:32.361Z,98922.88
2023-03-26T15:04:53.637Z,98920.63
2023-03-26T15:08:11.520Z,98901.53
2023-03-26T15:11:43.558Z,98891.44
2023-03-26T15:15:12.163Z,98894.19
2023-03-26T15:18:22.177Z,98898.28
2023-03-26T15:21:35.073Z,98888.69
2023-03-26T15:25:06.090Z,98886.78
2023-03-26T15:28:32.824Z,98885.44
2023-03-26T15:31:47.667Z,98872.28
2023-03-26T15:34:56.920Z,98862.44
2023-03-26T15:38:39.460Z,98861.91
2023-03-26T15:45:08.043Z,98836.47
2023-03-26T15:48:30.120Z,98827.47
2023-03-26T15:51:27.027Z,98824.19
2023-03-26T15:54:47.087Z,98821.09
2023-03-26T15:57:47.076Z,98824.66
2023-03-26T16:00:29.329Z,98819.13
2023-03-26T16:03:35.974Z,98818.63
2023-03-26T16:06:57.257Z,98808.19
2023-03-26T16:10:41.829Z,98799.34
2023-03-26T16:14:44.244Z,98799.34
2023-03-26T16:17:56.151Z,98792.16
2023-03-26T16:20:35.215Z,98781.47
2023-03-26T16:23:19.770Z,98769.59
2023-03-26T16:25:59.323Z,98772.91
2023-03-26T16:28:59.257Z,98766.97
2023-03-26T16:31:37.211Z,98769.28
2023-03-26T16:34:09.187Z,98765.88
2023-03-26T16:36:43.659Z,98757.38
2023-03-26T16:39:25.278Z,98767.72
2023-03-26T16:42:05.715Z,98738.03
2023-03-26T16:44:57.588Z,98758.78
2023-03-26T16:47:45.180Z,98758.94
2023-03-26T16:50:15.144Z,98731.13
2023-03-26T16:53:37.433Z,98744.09
2023-03-26T16:57:19.023Z,98747.03
2023-03-26T17:00:13.851Z,98746.38
2023-03-26T17:03:22.190Z,98749.03
2023-03-26T17:06:48.594Z,98741.41
2023-03-26T17:09:42.882Z,98728.28
2023-03-26T17:12:49.850Z,98728.28
2023-03-26T17:16:31.581Z,98731.47
2023-03-26T17:20:20.810Z,98727.06
2023-03-26T17:23:23.155Z,98722.94
2023-03-26T17:26:50.267Z,98730.22
2023-03-26T17:30:02.346Z,98724.75
2023-03-26T17:33:23.752Z,98722.47
2023-03-26T17:36:51.047Z,98723.94
2023-03-26T17:40:36.330Z,98724.94
2023-03-26T17:43:58.686Z,98722.09
2023-03-26T17:47:01.191Z,98720.88
2023-03-26T17:50:23.073Z,98730.38
2023-03-26T17:53:27.627Z,98722.22
2023-03-26T18:01:06.073Z,98722.00
2023-03-26T18:04:42.626Z,98718.06
2023-03-26T18:07:52.561Z,98708.94
2023-03-26T18:11:12.579Z,98705.47
2023-03-26T18:15:10.969Z,98718.59
2023-03-26T18:18:45.952Z,98703.50
2023-03-26T18:21:24.426Z,98703.81
2023-03-26T18:24:38.855Z,98706.25
2023-03-26T18:27:20.207Z,98703.56
2023-03-26T18:30:04.097Z,98686.44
2023-03-26T18:32:33.872Z,98688.69
2023-03-26T18:35:39.618Z,98689.22
2023-03-26T18:38:35.635Z,98688.63
2023-03-26T18:41:27.541Z,98680.97
2023-03-26T18:44:28.824Z,98681.47
2023-03-26T18:47:14.112Z,98668.91
2023-03-26T18:50:07.876Z,98663.38
2023-03-26T18:53:05.480Z,98659.09
2023-03-26T18:56:41.364Z,98652.59
2023-03-26T18:59:46.260Z,98657.44
2023-03-26T19:02:24.091Z,98650.06
2023-03-26T19:05:28.802Z,98651.88
2023-03-26T19:07:57.960Z,98635.34
2023-03-26T19:10:35.302Z,98627.72
2023-03-26T19:16:09.857Z,98627.22
2023-03-26T19:18:44.225Z,98616.88
2023-03-26T19:21:14.864Z,98608.72
2023-03-26T19:23:57.923Z,98596.22
2023-03-26T19:26:37.648Z,98590.81
2023-03-26T19:29:18.687Z,98582.09
2023-03-26T19:32:37.298Z,98549.81
2023-03-26T19:36:07.963Z,98574.28
2023-03-26T19:39:36.557Z,98568.84
2023-03-26T19:42:43.411Z,98563.59
2023-03-26T19:45:34.489Z,98555.69
2023-03-26T19:48:15.339Z,98553.88
2023-03-26T19:51:40.831Z,98548.22
2023-03-26T19:55:01.388Z,98541.78
2023-03-26T19:57:38.970Z,98531.78
2023-03-26T20:00:29.785Z,98519.28
2023-03-26T20:03:03.539Z,98528.56
2023-03-26T20:05:58.070Z,98518.75
2023-03-26T20:09:05.704Z,98521.16
2023-03-26T20:12:29.784Z,98513.50
2023-03-26T20:16:25.657Z,98501.34
2023-03-26T20:19:32.624Z,98492.06
2023-03-26T20:22:13.077Z,98475.78
2023-03-26T20:24:47.437Z,98489.03
2023-03-26T20:27:17.485Z,98480.59
2023-03-26T20:29:55.983Z,98468.00
2023-03-26T20:32:29.262Z,98452.75
2023-03-26T20:35:06.249Z,98453.13
2023-03-26T20:37:40.792Z,98447.56
2023-03-26T20:40:38.661Z,98441.84
2023-03-26T20:43:40.937Z,98437.31
2023-03-26T20:46:31.151Z,98423.22
2023-03-26T20:49:08.746Z,98413.44
2023-03-26T20:51:38.999Z,98415.56
2023-03-26T20:54:30.894Z,98384.28
2023-03-26T20:57:25.642Z,98407.34
2023-03-26T21:00:02.798Z,98397.50
2023-03-26T21:02:41.935Z,98396.44
2023-03-26T21:05:22.530Z,98391.44
2023-03-26T21:08:30.214Z,98407.69
2023-03-26T21:11:15.716Z,98395.13
2023-03-26T21:14:20.220Z,98384.38
2023-03-26T21:16:55.067Z,98371.41
2023-03-26T21:19:24.613Z,98373.72
2023-03-26T21:22:09.638Z,98358.94
2023-03-26T21:25:00.677Z,98348.28
2023-03-26T21:27:51.718Z,98345.31
2023-03-26T21:30:19.755Z,98338.53
2023-03-26T21:32:47.539Z,98336.31
2023-03-26T21:35:16.224Z,98334.34
2023-03-26T21:37:47.053Z,98323.84
2023-03-26T21:40:17.147Z,98292.13
2023-03-26T21:42:46.906Z,98312.69
2023-03-26T21:45:15.356Z,98318.34
2023-03-26T21:47:43.474Z,98303.16
2023-03-26T21:50:17.504Z,98308.06
2023-03-26T21:52:49.086Z,98297.75
2023-03-26T21:55:24.629Z,98280.00
2023-03-26T21:58:12.577Z,98267.88
2023-03-26T22:01:10.237Z,98278.78
2023-03-26T22:04:33.701Z,98276.06
2023-03-26T22:07:50.758Z,98272.94
2023-03-26T22:10:52.979Z,98274.00
2023-03-26T22:13:52.594Z,98272.94
2023-03-26T22:16:28.680Z,98274.06
2023-03-26T22:18:56.816Z,98260.63
2023-03-26T22:21:24.294Z,98259.91
2023-03-26T22:23:53.416Z,98259.97
2023-03-26T22:26:26.151Z,98260.78
2023-03-26T22:28:54.694Z,98255.72
2023-03-26T22:31:24.752Z,98250.88
2023-03-26T22:33:53.727Z,98255.72
2023-03-26T22:36:23.169Z,98251.44
2023-03-26T22:38:55.411Z,98253.19
2023-03-26T22:41:23.732Z,98261.56
2023-03-26T22:43:54.841Z,98246.28
2023-03-26T22:46:22.740Z,98233.28
2023-03-26T22:48:51.231Z,98226.06
2023-03-26T22:51:18.926Z,98223.97
2023-03-26T22:53:46.463Z,98224.97
2023-03-26T22:56:15.419Z,98206.69
2023-03-26T22:58:43.528Z,98206.25
2023-03-26T23:01:23.099Z,98214.72
2023-03-26T23:03:51.159Z,98201.50
2023-03-26T23:06:18.713Z,98197.41
2023-03-26T23:08:46.355Z,98204.81
2023-03-26T23:11:19.553Z,98202.88
2023-03-26T23:13:47.892Z,98202.09
2023-03-26T23:16:16.391Z,98208.66
2023-03-26T23:18:44.886Z,98199.75
2023-03-26T23:21:21.217Z,98190.81
2023-03-26T23:23:51.340Z,98174.50
2023-03-26T23:26:18.718Z,98186.53
2023-03-26T23:28:47.914Z,98169.75
2023-03-26T23:31:15.106Z,98177.66
2023-03-26T23:33:50.539Z,98171.44
2023-03-26T23:36:19.822Z,98156.56
2023-03-26T23:39:21.043Z,98160.22
2023-03-26T23:41:52.569Z,98149.75
2023-03-26T23:44:23.131Z,98139.72
2023-03-26T23:47:00.554Z,98162.31
2023-03-26T23:49:28.102Z,98143.59
2023-03-26T23:51:55.338Z,98135.44
2023-03-26T23:54:25.692Z,98139.81
2023-03-26T23:56:55.110Z,98136.84
2023-03-26T23:59:23.833Z,98119.19
